sensor_id;sensor_type;location;lat;lon;timestamp;P1;durP1;ratioP1;P2;durP2;ratioP2
20713;SDS011;10518;50.742;4.226;2024-01-15T00:02:23;33.30;;;10.50;;
20713;SDS011;10518;50.742;4.226;2024-01-15T00:04:49;30.80;;;9.83;;
20713;SDS011;10518;50.742;4.226;2024-01-15T00:07:14;24.00;;;9.13;;
20713;SDS011;10518;50.742;4.226;2024-01-15T00:09:40;19.90;;;8.47;;
20713;SDS011;10518;50.742;4.226;2024-01-15T00:12:05;20.97;;;8.80;;
20713;SDS011;10518;50.742;4.226;2024-01-15T00:14:31;24.17;;;9.07;;
20713;SDS011;10518;50.742;4.226;2024-01-15T00:16:57;22.40;;;8.60;;
20713;SDS011;10518;50.742;4.226;2024-01-15T00:19:22;20.80;;;8.27;;
20713;SDS011;10518;50.742;4.226;2024-01-15T00:21:48;23.77;;;7.97;;
20713;SDS011;10518;50.742;4.226;2024-01-15T00:24:14;20.63;;;9.30;;
20713;SDS011;10518;50.742;4.226;2024-01-15T00:26:40;19.77;;;8.47;;
20713;SDS011;10518;50.742;4.226;2024-01-15T00:29:09;24.80;;;8.90;;
20713;SDS011;10518;50.742;4.226;2024-01-15T00:31:35;19.70;;;7.77;;
20713;SDS011;10518;50.742;4.226;2024-01-15T00:34:00;21.93;;;8.33;;
20713;SDS011;10518;50.742;4.226;2024-01-15T00:36:26;21.90;;;7.83;;
20713;SDS011;10518;50.742;4.226;2024-01-15T00:38:52;19.03;;;8.93;;
20713;SDS011;10518;50.742;4.226;2024-01-15T00:41:18;21.03;;;8.03;;
20713;SDS011;10518;50.742;4.226;2024-01-15T00:43:44;18.53;;;7.87;;
20713;SDS011;10518;50.742;4.226;2024-01-15T00:46:10;22.67;;;8.37;;
20713;SDS011;10518;50.742;4.226;2024-01-15T00:48:36;18.47;;;7.57;;
20713;SDS011;10518;50.742;4.226;2024-01-15T00:51:02;21.90;;;8.07;;
20713;SDS011;10518;50.742;4.226;2024-01-15T00:53:28;23.50;;;9.73;;
20713;SDS011;10518;50.742;4.226;2024-01-15T00:55:54;26.40;;;10.17;;
20713;SDS011;10518;50.742;4.226;2024-01-15T00:58:19;23.63;;;8.90;;
20713;SDS011;10518;50.742;4.226;2024-01-15T01:00:45;23.67;;;8.90;;
20713;SDS011;10518;50.742;4.226;2024-01-15T01:03:11;21.53;;;9.23;;
20713;SDS011;10518;50.742;4.226;2024-01-15T01:05:36;26.17;;;9.27;;
20713;SDS011;10518;50.742;4.226;2024-01-15T01:08:02;30.03;;;10.10;;
20713;SDS011;10518;50.742;4.226;2024-01-15T01:10:28;23.10;;;9.00;;
20713;SDS011;10518;50.742;4.226;2024-01-15T01:12:54;28.67;;;10.33;;
20713;SDS011;10518;50.742;4.226;2024-01-15T01:15:19;22.93;;;9.53;;
20713;SDS011;10518;50.742;4.226;2024-01-15T01:17:45;20.73;;;8.30;;
20713;SDS011;10518;50.742;4.226;2024-01-15T01:20:11;19.97;;;7.97;;
20713;SDS011;10518;50.742;4.226;2024-01-15T01:22:37;21.93;;;8.37;;
20713;SDS011;10518;50.742;4.226;2024-01-15T01:25:02;16.67;;;7.13;;
20713;SDS011;10518;50.742;4.226;2024-01-15T01:27:28;20.67;;;8.40;;
20713;SDS011;10518;50.742;4.226;2024-01-15T01:29:54;17.00;;;6.47;;
20713;SDS011;10518;50.742;4.226;2024-01-15T01:32:19;19.53;;;7.27;;
20713;SDS011;10518;50.742;4.226;2024-01-15T01:34:45;22.00;;;7.50;;
20713;SDS011;10518;50.742;4.226;2024-01-15T01:37:11;14.27;;;6.90;;
20713;SDS011;10518;50.742;4.226;2024-01-15T01:39:40;15.33;;;7.10;;
20713;SDS011;10518;50.742;4.226;2024-01-15T01:42:06;14.57;;;7.27;;
20713;SDS011;10518;50.742;4.226;2024-01-15T01:44:32;20.77;;;7.73;;
20713;SDS011;10518;50.742;4.226;2024-01-15T01:46:58;22.20;;;8.47;;
20713;SDS011;10518;50.742;4.226;2024-01-15T01:49:25;16.50;;;7.53;;
20713;SDS011;10518;50.742;4.226;2024-01-15T01:51:56;17.77;;;7.93;;
20713;SDS011;10518;50.742;4.226;2024-01-15T01:54:25;14.93;;;7.10;;
20713;SDS011;10518;50.742;4.226;2024-01-15T01:56:54;21.50;;;8.50;;
20713;SDS011;10518;50.742;4.226;2024-01-15T01:59:20;17.00;;;7.80;;
20713;SDS011;10518;50.742;4.226;2024-01-15T02:01:48;21.83;;;7.57;;
20713;SDS011;10518;50.742;4.226;2024-01-15T02:04:15;21.73;;;8.07;;
20713;SDS011;10518;50.742;4.226;2024-01-15T02:06:41;18.33;;;7.67;;
20713;SDS011;10518;50.742;4.226;2024-01-15T02:09:07;19.10;;;8.27;;
20713;SDS011;10518;50.742;4.226;2024-01-15T02:11:34;20.17;;;8.47;;
20713;SDS011;10518;50.742;4.226;2024-01-15T02:13:59;19.10;;;7.90;;
20713;SDS011;10518;50.742;4.226;2024-01-15T02:16:26;18.07;;;7.13;;
20713;SDS011;10518;50.742;4.226;2024-01-15T02:18:51;19.87;;;7.77;;
20713;SDS011;10518;50.742;4.226;2024-01-15T02:21:17;19.50;;;7.83;;
20713;SDS011;10518;50.742;4.226;2024-01-15T02:23:42;15.97;;;7.57;;
20713;SDS011;10518;50.742;4.226;2024-01-15T02:26:08;22.10;;;7.70;;
20713;SDS011;10518;50.742;4.226;2024-01-15T02:28:34;22.30;;;8.90;;
20713;SDS011;10518;50.742;4.226;2024-01-15T02:31:00;15.87;;;7.73;;
20713;SDS011;10518;50.742;4.226;2024-01-15T02:33:25;17.53;;;8.23;;
20713;SDS011;10518;50.742;4.226;2024-01-15T02:35:51;20.33;;;8.60;;
20713;SDS011;10518;50.742;4.226;2024-01-15T02:38:16;23.40;;;8.70;;
20713;SDS011;10518;50.742;4.226;2024-01-15T02:40:43;26.60;;;9.63;;
20713;SDS011;10518;50.742;4.226;2024-01-15T02:43:09;19.50;;;8.47;;
20713;SDS011;10518;50.742;4.226;2024-01-15T02:45:35;22.67;;;9.70;;
20713;SDS011;10518;50.742;4.226;2024-01-15T02:48:00;24.53;;;9.00;;
20713;SDS011;10518;50.742;4.226;2024-01-15T02:50:26;23.53;;;10.20;;
20713;SDS011;10518;50.742;4.226;2024-01-15T02:52:52;25.87;;;8.73;;
20713;SDS011;10518;50.742;4.226;2024-01-15T02:55:17;30.43;;;10.67;;
20713;SDS011;10518;50.742;4.226;2024-01-15T02:57:43;25.37;;;10.87;;
20713;SDS011;10518;50.742;4.226;2024-01-15T03:00:09;26.27;;;10.13;;
20713;SDS011;10518;50.742;4.226;2024-01-15T03:02:38;27.53;;;10.10;;
20713;SDS011;10518;50.742;4.226;2024-01-15T03:05:05;23.80;;;10.33;;
20713;SDS011;10518;50.742;4.226;2024-01-15T03:07:32;24.53;;;10.37;;
20713;SDS011;10518;50.742;4.226;2024-01-15T03:09:58;25.73;;;10.37;;
20713;SDS011;10518;50.742;4.226;2024-01-15T03:12:23;25.33;;;10.40;;
20713;SDS011;10518;50.742;4.226;2024-01-15T03:14:49;32.83;;;11.20;;
20713;SDS011;10518;50.742;4.226;2024-01-15T03:17:15;27.80;;;10.67;;
20713;SDS011;10518;50.742;4.226;2024-01-15T03:19:40;22.40;;;10.07;;
20713;SDS011;10518;50.742;4.226;2024-01-15T03:22:06;26.93;;;10.73;;
20713;SDS011;10518;50.742;4.226;2024-01-15T03:24:33;28.23;;;10.93;;
20713;SDS011;10518;50.742;4.226;2024-01-15T03:26:59;29.90;;;10.73;;
20713;SDS011;10518;50.742;4.226;2024-01-15T03:29:25;25.83;;;10.73;;
20713;SDS011;10518;50.742;4.226;2024-01-15T03:31:51;25.63;;;10.90;;
20713;SDS011;10518;50.742;4.226;2024-01-15T03:34:17;27.87;;;10.67;;
20713;SDS011;10518;50.742;4.226;2024-01-15T03:36:42;25.80;;;10.80;;
20713;SDS011;10518;50.742;4.226;2024-01-15T03:39:08;26.30;;;11.83;;
20713;SDS011;10518;50.742;4.226;2024-01-15T03:41:34;28.87;;;10.53;;
20713;SDS011;10518;50.742;4.226;2024-01-15T03:43:59;26.53;;;11.63;;
20713;SDS011;10518;50.742;4.226;2024-01-15T03:46:25;24.23;;;10.40;;
20713;SDS011;10518;50.742;4.226;2024-01-15T03:48:50;23.77;;;10.30;;
20713;SDS011;10518;50.742;4.226;2024-01-15T03:51:19;29.67;;;10.77;;
20713;SDS011;10518;50.742;4.226;2024-01-15T03:53:45;24.53;;;10.73;;
20713;SDS011;10518;50.742;4.226;2024-01-15T03:56:11;26.97;;;10.53;;
20713;SDS011;10518;50.742;4.226;2024-01-15T03:58:37;20.63;;;9.23;;
20713;SDS011;10518;50.742;4.226;2024-01-15T04:01:02;27.90;;;10.33;;
20713;SDS011;10518;50.742;4.226;2024-01-15T04:03:28;25.60;;;10.10;;
20713;SDS011;10518;50.742;4.226;2024-01-15T04:05:54;26.13;;;10.50;;
20713;SDS011;10518;50.742;4.226;2024-01-15T04:08:20;26.20;;;10.13;;
20713;SDS011;10518;50.742;4.226;2024-01-15T04:10:46;22.60;;;9.83;;
20713;SDS011;10518;50.742;4.226;2024-01-15T04:13:11;22.80;;;9.30;;
20713;SDS011;10518;50.742;4.226;2024-01-15T04:15:37;21.57;;;7.80;;
20713;SDS011;10518;50.742;4.226;2024-01-15T04:18:02;22.87;;;9.23;;
20713;SDS011;10518;50.742;4.226;2024-01-15T04:20:28;17.83;;;8.27;;
20713;SDS011;10518;50.742;4.226;2024-01-15T04:22:54;24.40;;;9.40;;
20713;SDS011;10518;50.742;4.226;2024-01-15T04:25:20;16.93;;;8.43;;
20713;SDS011;10518;50.742;4.226;2024-01-15T04:27:45;20.40;;;8.47;;
20713;SDS011;10518;50.742;4.226;2024-01-15T04:30:11;21.37;;;8.87;;
20713;SDS011;10518;50.742;4.226;2024-01-15T04:32:37;25.70;;;8.30;;
20713;SDS011;10518;50.742;4.226;2024-01-15T04:35:02;21.73;;;8.07;;
20713;SDS011;10518;50.742;4.226;2024-01-15T04:37:28;18.20;;;7.43;;
20713;SDS011;10518;50.742;4.226;2024-01-15T04:39:54;18.80;;;7.77;;
20713;SDS011;10518;50.742;4.226;2024-01-15T04:42:20;15.50;;;6.97;;
20713;SDS011;10518;50.742;4.226;2024-01-15T04:44:46;19.33;;;7.90;;
20713;SDS011;10518;50.742;4.226;2024-01-15T04:47:12;14.63;;;6.63;;
20713;SDS011;10518;50.742;4.226;2024-01-15T04:49:37;17.53;;;6.53;;
20713;SDS011;10518;50.742;4.226;2024-01-15T04:52:03;14.73;;;6.53;;
20713;SDS011;10518;50.742;4.226;2024-01-15T04:54:36;13.30;;;6.50;;
20713;SDS011;10518;50.742;4.226;2024-01-15T04:57:01;15.60;;;6.87;;
20713;SDS011;10518;50.742;4.226;2024-01-15T04:59:27;15.03;;;7.27;;
20713;SDS011;10518;50.742;4.226;2024-01-15T05:01:53;16.97;;;7.30;;
20713;SDS011;10518;50.742;4.226;2024-01-15T05:04:20;18.60;;;8.07;;
20713;SDS011;10518;50.742;4.226;2024-01-15T05:06:45;20.93;;;8.77;;
20713;SDS011;10518;50.742;4.226;2024-01-15T05:09:11;19.37;;;8.37;;
20713;SDS011;10518;50.742;4.226;2024-01-15T05:11:38;20.47;;;8.83;;
20713;SDS011;10518;50.742;4.226;2024-01-15T05:14:04;25.33;;;8.97;;
20713;SDS011;10518;50.742;4.226;2024-01-15T05:16:30;23.30;;;9.70;;
20713;SDS011;10518;50.742;4.226;2024-01-15T05:18:58;20.70;;;8.90;;
20713;SDS011;10518;50.742;4.226;2024-01-15T05:21:24;20.90;;;9.07;;
20713;SDS011;10518;50.742;4.226;2024-01-15T05:23:50;21.27;;;9.67;;
20713;SDS011;10518;50.742;4.226;2024-01-15T05:26:21;21.57;;;10.10;;
20713;SDS011;10518;50.742;4.226;2024-01-15T05:28:46;22.23;;;10.07;;
20713;SDS011;10518;50.742;4.226;2024-01-15T05:31:56;21.87;;;9.87;;
20713;SDS011;10518;50.742;4.226;2024-01-15T05:34:44;23.33;;;9.50;;
20713;SDS011;10518;50.742;4.226;2024-01-15T05:37:15;23.03;;;10.10;;
20713;SDS011;10518;50.742;4.226;2024-01-15T05:43:32;28.43;;;10.57;;
20713;SDS011;10518;50.742;4.226;2024-01-15T05:46:22;22.73;;;9.40;;
20713;SDS011;10518;50.742;4.226;2024-01-15T05:49:14;20.63;;;9.30;;
20713;SDS011;10518;50.742;4.226;2024-01-15T05:51:39;18.53;;;8.93;;
20713;SDS011;10518;50.742;4.226;2024-01-15T05:54:05;20.20;;;10.27;;
20713;SDS011;10518;50.742;4.226;2024-01-15T05:56:31;19.50;;;8.87;;
20713;SDS011;10518;50.742;4.226;2024-01-15T05:58:56;21.40;;;9.37;;
20713;SDS011;10518;50.742;4.226;2024-01-15T06:01:22;25.03;;;10.57;;
20713;SDS011;10518;50.742;4.226;2024-01-15T06:03:48;22.03;;;9.93;;
20713;SDS011;10518;50.742;4.226;2024-01-15T06:06:14;19.10;;;9.17;;
20713;SDS011;10518;50.742;4.226;2024-01-15T06:08:43;19.97;;;9.70;;
20713;SDS011;10518;50.742;4.226;2024-01-15T06:11:09;19.03;;;9.80;;
20713;SDS011;10518;50.742;4.226;2024-01-15T06:13:35;23.33;;;11.00;;
20713;SDS011;10518;50.742;4.226;2024-01-15T06:18:59;17.43;;;9.77;;
20713;SDS011;10518;50.742;4.226;2024-01-15T06:21:25;22.53;;;10.80;;
20713;SDS011;10518;50.742;4.226;2024-01-15T06:23:56;23.00;;;10.53;;
20713;SDS011;10518;50.742;4.226;2024-01-15T06:26:41;21.93;;;9.07;;
20713;SDS011;10518;50.742;4.226;2024-01-15T06:29:13;17.33;;;7.97;;
20713;SDS011;10518;50.742;4.226;2024-01-15T06:31:57;13.27;;;6.53;;
20713;SDS011;10518;50.742;4.226;2024-01-15T06:34:24;10.40;;;6.07;;
20713;SDS011;10518;50.742;4.226;2024-01-15T06:37:06;11.90;;;6.07;;
20713;SDS011;10518;50.742;4.226;2024-01-15T06:39:34;12.67;;;5.53;;
20713;SDS011;10518;50.742;4.226;2024-01-15T06:42:00;8.97;;;5.20;;
20713;SDS011;10518;50.742;4.226;2024-01-15T06:44:26;12.87;;;5.13;;
20713;SDS011;10518;50.742;4.226;2024-01-15T06:47:17;8.37;;;4.80;;
20713;SDS011;10518;50.742;4.226;2024-01-15T06:50:07;7.67;;;4.07;;
20713;SDS011;10518;50.742;4.226;2024-01-15T06:52:45;6.43;;;3.40;;
20713;SDS011;10518;50.742;4.226;2024-01-15T06:55:32;5.97;;;3.50;;
20713;SDS011;10518;50.742;4.226;2024-01-15T06:57:58;5.57;;;3.70;;
20713;SDS011;10518;50.742;4.226;2024-01-15T07:00:25;9.60;;;4.23;;
20713;SDS011;10518;50.742;4.226;2024-01-15T07:02:55;7.10;;;4.60;;
20713;SDS011;10518;50.742;4.226;2024-01-15T07:05:28;9.37;;;4.87;;
20713;SDS011;10518;50.742;4.226;2024-01-15T07:08:15;18.50;;;6.30;;
20713;SDS011;10518;50.742;4.226;2024-01-15T07:10:42;10.63;;;6.13;;
20713;SDS011;10518;50.742;4.226;2024-01-15T07:13:32;13.07;;;6.33;;
20713;SDS011;10518;50.742;4.226;2024-01-15T07:16:44;12.63;;;6.60;;
20713;SDS011;10518;50.742;4.226;2024-01-15T07:19:54;12.63;;;6.43;;
20713;SDS011;10518;50.742;4.226;2024-01-15T07:22:48;13.67;;;6.67;;
20713;SDS011;10518;50.742;4.226;2024-01-15T07:26:21;15.53;;;5.20;;
20713;SDS011;10518;50.742;4.226;2024-01-15T07:29:32;15.20;;;5.77;;
20713;SDS011;10518;50.742;4.226;2024-01-15T07:32:40;15.10;;;4.90;;
20713;SDS011;10518;50.742;4.226;2024-01-15T07:35:52;9.90;;;4.33;;
20713;SDS011;10518;50.742;4.226;2024-01-15T07:38:53;6.87;;;3.83;;
20713;SDS011;10518;50.742;4.226;2024-01-15T07:41:53;8.40;;;3.93;;
20713;SDS011;10518;50.742;4.226;2024-01-15T07:45:35;6.23;;;3.30;;
20713;SDS011;10518;50.742;4.226;2024-01-15T07:49:06;3.23;;;2.73;;
20713;SDS011;10518;50.742;4.226;2024-01-15T07:52:37;5.60;;;2.70;;
20713;SDS011;10518;50.742;4.226;2024-01-15T07:56:06;5.63;;;3.10;;
20713;SDS011;10518;50.742;4.226;2024-01-15T08:02:18;8.57;;;2.87;;
